createdAt,value
2023-03-04T00:04:03.101Z,10.77
2023-03-04T00:08:06.207Z,10.82
2023-03-04T00:12:09.640Z,10.85
2023-03-04T00:16:14.268Z,10.82
2023-03-04T00:20:17.384Z,11.68
2023-03-04T00:24:20.362Z,11.85
2023-03-04T00:28:23.484Z,12.07
2023-03-04T00:32:27.953Z,12.23
2023-03-04T00:36:31.690Z,11.82
2023-03-04T00:40:34.935Z,11.30
2023-03-04T00:44:38.513Z,12.50
2023-03-04T00:48:42.960Z,11.38
2023-03-04T00:52:46.160Z,10.95
2023-03-04T00:56:49.409Z,11.80
2023-03-04T01:00:53.307Z,10.73
2023-03-04T01:04:57.762Z,9.75
2023-03-04T01:09:00.801Z,11.60
2023-03-04T01:13:04.298Z,11.43
2023-03-04T01:17:07.394Z,11.48
2023-03-04T01:21:12.673Z,11.50
2023-03-04T01:25:15.893Z,11.05
2023-03-04T01:29:19.021Z,11.80
2023-03-04T01:33:22.757Z,11.32
2023-03-04T01:37:27.833Z,11.80
2023-03-04T01:41:31.057Z,11.18
2023-03-04T01:45:39.145Z,11.43
2023-03-04T01:49:45.003Z,12.00
2023-03-04T01:53:53.418Z,11.70
2023-03-04T01:57:57.447Z,11.50
2023-03-04T02:02:01.796Z,12.13
2023-03-04T02:06:06.698Z,10.95
2023-03-04T02:10:14.023Z,12.25
2023-03-04T02:14:26.583Z,12.25
2023-03-04T02:18:29.554Z,11.70
2023-03-04T02:22:34.129Z,11.30
2023-03-04T02:26:41.382Z,12.20
2023-03-04T02:30:44.646Z,12.17
2023-03-04T02:34:49.715Z,12.75
2023-03-04T02:38:55.584Z,11.77
2023-03-04T02:43:01.637Z,11.23
2023-03-04T02:47:07.061Z,11.90
2023-03-04T02:51:10.425Z,10.30
2023-03-04T02:55:13.608Z,11.77
2023-03-04T02:59:18.575Z,10.10
2023-03-04T03:03:21.642Z,10.67
2023-03-04T03:07:24.740Z,11.47
2023-03-04T03:11:28.417Z,11.15
2023-03-04T03:15:33.512Z,10.82
2023-03-04T03:19:36.710Z,10.52
2023-03-04T03:23:43.367Z,10.63
2023-03-04T03:27:46.516Z,10.47
2023-03-04T03:31:51.663Z,9.98
2023-03-04T03:35:57.430Z,9.30
2023-03-04T03:40:00.936Z,9.43
2023-03-04T03:44:04.038Z,8.27
2023-03-04T03:48:19.708Z,9.37
2023-03-04T03:52:24.149Z,9.10
2023-03-04T03:56:27.153Z,8.60
2023-03-04T04:00:30.307Z,8.20
2023-03-04T04:04:33.443Z,9.23
2023-03-04T04:08:37.900Z,8.63
2023-03-04T04:12:41.128Z,8.57
2023-03-04T04:16:44.226Z,9.47
2023-03-04T04:20:47.731Z,8.73
2023-03-04T04:24:52.134Z,7.70
2023-03-04T04:28:55.160Z,8.00
2023-03-04T04:33:01.634Z,8.70
2023-03-04T04:37:04.597Z,8.70
2023-03-04T04:41:19.667Z,8.40
2023-03-04T04:45:22.676Z,9.17
2023-03-04T04:49:25.726Z,10.87
2023-03-04T04:53:28.800Z,9.50
2023-03-04T04:57:34.289Z,11.53
2023-03-04T05:01:37.685Z,11.33
2023-03-04T05:05:41.004Z,11.03
2023-03-04T05:09:43.971Z,11.50
2023-03-04T05:13:49.333Z,11.47
2023-03-04T05:17:52.343Z,11.53
2023-03-04T05:21:55.390Z,12.07
2023-03-04T05:25:58.378Z,12.05
2023-03-04T05:30:02.867Z,13.80
2023-03-04T05:34:05.941Z,12.70
2023-03-04T05:38:11.833Z,12.43
2023-03-04T05:42:14.817Z,12.80
2023-03-04T05:46:25.409Z,13.03
2023-03-04T05:50:28.546Z,13.40
2023-03-04T05:54:31.810Z,13.60
2023-03-04T05:58:34.796Z,13.70
2023-03-04T06:02:39.373Z,13.40
2023-03-04T06:06:42.675Z,12.90
2023-03-04T06:10:45.748Z,12.60
2023-03-04T06:14:48.813Z,12.50
2023-03-04T06:18:53.253Z,13.10
2023-03-04T06:22:56.238Z,13.00
2023-03-04T06:26:59.533Z,13.07
2023-03-04T06:31:02.538Z,13.07
2023-03-04T06:35:08.024Z,13.43
2023-03-04T06:39:11.490Z,11.47
2023-03-04T06:43:14.571Z,12.33
2023-03-04T06:47:18.835Z,13.87
2023-03-04T06:51:23.395Z,12.77
2023-03-04T06:55:26.416Z,12.93
2023-03-04T06:59:29.497Z,15.13
2023-03-04T07:03:32.458Z,16.67
2023-03-04T07:07:37.417Z,17.47
2023-03-04T07:11:40.648Z,18.40
2023-03-04T07:15:43.730Z,17.17
2023-03-04T07:19:46.720Z,17.30
2023-03-04T07:23:51.182Z,17.45
2023-03-04T07:27:54.175Z,17.35
2023-03-04T07:31:57.483Z,16.77
2023-03-04T07:36:00.802Z,16.33
2023-03-04T07:40:08.173Z,16.65
2023-03-04T07:44:13.607Z,17.55
2023-03-04T07:48:16.715Z,17.27
2023-03-04T07:52:19.730Z,17.48
2023-03-04T07:56:26.281Z,17.33
2023-03-04T08:00:29.253Z,16.70
2023-03-04T08:04:32.375Z,17.30
2023-03-04T08:08:35.789Z,14.52
2023-03-04T08:12:40.295Z,15.30
2023-03-04T08:16:43.351Z,14.82
2023-03-04T08:20:46.406Z,15.23
2023-03-04T08:24:49.370Z,14.63
2023-03-04T08:28:55.007Z,14.40
2023-03-04T08:32:58.010Z,13.63
2023-03-04T08:37:01.108Z,14.77
2023-03-04T08:41:04.858Z,13.25
2023-03-04T08:45:10.234Z,13.15
2023-03-04T08:49:14.526Z,14.50
2023-03-04T08:53:18.867Z,11.73
2023-03-04T08:57:21.848Z,12.02
2023-03-04T09:01:26.312Z,12.25
2023-03-04T09:05:29.276Z,12.20
2023-03-04T09:09:33.208Z,12.32
2023-03-04T09:13:37.843Z,12.00
2023-03-04T09:17:42.818Z,11.45
2023-03-04T09:21:45.813Z,10.77
2023-03-04T09:25:49.730Z,11.00
2023-03-04T09:29:52.718Z,9.63
2023-03-04T09:33:59.377Z,10.07
2023-03-04T09:38:02.639Z,9.55
2023-03-04T09:42:08.800Z,8.43
2023-03-04T09:46:16.014Z,8.18
2023-03-04T09:50:21.674Z,7.97
2023-03-04T09:54:43.474Z,7.60
2023-03-04T09:58:58.484Z,7.57
2023-03-04T10:03:11.504Z,6.32
2023-03-04T10:07:20.203Z,6.57
2023-03-04T10:11:28.282Z,6.63
2023-03-04T10:15:36.434Z,6.05
2023-03-04T10:19:52.272Z,6.22
2023-03-04T10:23:59.357Z,7.47
2023-03-04T10:28:05.679Z,6.00
2023-03-04T10:32:13.491Z,6.85
2023-03-04T10:36:37.002Z,6.50
2023-03-04T10:40:44.562Z,6.35
2023-03-04T10:44:54.091Z,7.43
2023-03-04T10:48:57.165Z,6.78
2023-03-04T10:53:00.416Z,7.15
2023-03-04T10:57:06.881Z,6.72
2023-03-04T11:01:17.628Z,6.07
2023-03-04T11:05:23.036Z,5.78
2023-03-04T11:09:28.107Z,5.95
2023-03-04T11:13:33.655Z,6.43
2023-03-04T11:17:46.468Z,6.65
2023-03-04T11:21:50.652Z,6.68
2023-03-04T11:26:00.113Z,6.57
2023-03-04T11:30:23.117Z,5.70
2023-03-04T11:34:35.173Z,7.13
2023-03-04T11:38:43.308Z,6.43
2023-03-04T11:42:52.177Z,7.18
2023-03-04T11:47:13.985Z,6.45
2023-03-04T11:51:24.082Z,5.65
2023-03-04T11:55:35.565Z,6.03
2023-03-04T11:59:56.961Z,5.45
2023-03-04T12:04:16.526Z,5.72
2023-03-04T12:08:45.917Z,5.50
2023-03-04T12:13:03.184Z,5.50
2023-03-04T12:17:30.569Z,5.15
2023-03-04T12:21:55.792Z,5.40
2023-03-04T12:26:08.004Z,5.38
2023-03-04T12:30:27.561Z,4.82
2023-03-04T12:34:53.668Z,5.50
2023-03-04T12:39:34.657Z,5.28
2023-03-04T12:43:47.763Z,4.72
2023-03-04T12:48:01.709Z,5.60
2023-03-04T12:52:16.365Z,5.15
2023-03-04T12:56:27.899Z,5.95
2023-03-04T13:00:43.026Z,5.30
2023-03-04T13:04:58.759Z,5.65
2023-03-04T13:09:11.756Z,6.40
2023-03-04T13:13:39.446Z,5.00
2023-03-04T13:17:44.899Z,5.75
2023-03-04T13:21:50.638Z,5.47
2023-03-04T13:26:18.573Z,5.10
2023-03-04T13:30:42.627Z,4.53
2023-03-04T13:34:51.811Z,5.15
2023-03-04T13:39:03.840Z,5.25
2023-03-04T13:43:27.066Z,6.35
2023-03-04T13:47:48.828Z,6.15
2023-03-04T13:51:52.800Z,6.05
2023-03-04T13:56:24.056Z,6.13
2023-03-04T14:00:27.752Z,6.60
2023-03-04T14:04:38.380Z,7.05
2023-03-04T14:08:41.363Z,6.05
2023-03-04T14:12:47.648Z,7.13
2023-03-04T14:16:53.563Z,7.05
2023-03-04T14:21:01.813Z,7.75
2023-03-04T14:25:07.788Z,7.95
2023-03-04T14:29:25.600Z,8.23
2023-03-04T14:33:30.756Z,9.23
2023-03-04T14:37:44.139Z,8.80
2023-03-04T14:41:49.022Z,9.70
2023-03-04T14:45:54.624Z,9.45
2023-03-04T14:49:57.970Z,9.05
2023-03-04T14:54:02.466Z,9.25
2023-03-04T14:58:10.749Z,8.93
2023-03-04T15:02:30.992Z,9.40
2023-03-04T15:06:36.474Z,9.55
2023-03-04T15:10:41.133Z,8.65
2023-03-04T15:14:45.790Z,9.73
2023-03-04T15:18:56.642Z,9.40
2023-03-04T15:23:02.926Z,8.57
2023-03-04T15:27:11.374Z,9.48
2023-03-04T15:31:18.118Z,8.77
2023-03-04T15:35:22.020Z,8.55
2023-03-04T15:39:26.412Z,7.95
2023-03-04T15:43:30.931Z,8.38
2023-03-04T15:47:33.892Z,7.70
2023-03-04T15:51:37.294Z,7.80
2023-03-04T15:55:40.560Z,7.25
2023-03-04T15:59:44.997Z,7.72
2023-03-04T16:03:47.992Z,7.70
2023-03-04T16:07:52.523Z,7.20
2023-03-04T16:12:01.683Z,8.23
2023-03-04T16:16:06.825Z,7.72
2023-03-04T16:20:11.604Z,7.32
2023-03-04T16:24:19.002Z,7.13
2023-03-04T16:28:22.400Z,8.05
2023-03-04T16:32:26.904Z,7.25
2023-03-04T16:36:30.689Z,7.43
2023-03-04T16:40:34.179Z,7.95
2023-03-04T16:44:37.147Z,6.65
2023-03-04T16:48:42.356Z,6.55
2023-03-04T16:52:47.042Z,5.97
2023-03-04T16:56:50.138Z,7.70
2023-03-04T17:00:53.150Z,6.97
2023-03-04T17:04:59.380Z,6.80
2023-03-04T17:09:02.405Z,7.53
2023-03-04T17:13:05.994Z,7.28
2023-03-04T17:17:09.236Z,5.82
2023-03-04T17:21:16.271Z,6.70
2023-03-04T17:25:19.717Z,5.80
2023-03-04T17:29:22.932Z,6.03
2023-03-04T17:33:25.936Z,6.05
2023-03-04T17:37:30.363Z,5.97
2023-03-04T17:41:35.723Z,4.90
2023-03-04T17:45:39.303Z,4.68
2023-03-04T17:49:42.418Z,4.85
2023-03-04T17:53:46.854Z,4.15
2023-03-04T17:57:52.871Z,4.13
2023-03-04T18:01:55.985Z,4.38
2023-03-04T18:05:59.074Z,4.53
2023-03-04T18:10:03.580Z,4.47
2023-03-04T18:14:06.952Z,4.47
2023-03-04T18:18:10.057Z,4.53
2023-03-04T18:22:13.335Z,4.57
2023-03-04T18:26:21.054Z,5.38
2023-03-04T18:30:27.295Z,5.05
2023-03-04T18:34:30.399Z,4.63
2023-03-04T18:38:33.880Z,5.18
2023-03-04T18:42:38.609Z,5.15
2023-03-04T18:46:45.189Z,4.57
2023-03-04T18:50:48.478Z,5.00
2023-03-04T18:54:51.537Z,4.47
2023-03-04T18:58:56.183Z,4.80
2023-03-04T19:03:02.270Z,4.75
2023-03-04T19:07:05.400Z,5.43
2023-03-04T19:11:08.386Z,5.22
2023-03-04T19:15:13.769Z,5.65
2023-03-04T19:19:16.752Z,6.18
2023-03-04T19:23:19.823Z,5.75
2023-03-04T19:27:23.276Z,5.80
2023-03-04T19:31:28.007Z,5.55
2023-03-04T19:35:32.479Z,5.32
2023-03-04T19:39:35.645Z,5.35
2023-03-04T19:43:39.597Z,4.80
2023-03-04T19:47:44.210Z,4.95
2023-03-04T19:51:47.206Z,4.53
2023-03-04T19:55:50.667Z,4.90
2023-03-04T19:59:53.707Z,5.65
2023-03-04T20:04:00.006Z,4.90
2023-03-04T20:08:03.171Z,5.47
2023-03-04T20:12:06.935Z,5.00
2023-03-04T20:16:10.871Z,4.88
2023-03-04T20:20:16.489Z,4.90
2023-03-04T20:24:23.002Z,4.95
2023-03-04T20:28:27.154Z,5.47
2023-03-04T20:32:30.226Z,4.53
2023-03-04T20:36:35.961Z,4.63
2023-03-04T20:40:40.462Z,4.38
2023-03-04T20:44:43.522Z,4.63
2023-03-04T20:48:46.514Z,4.25
2023-03-04T20:52:51.068Z,4.05
2023-03-04T20:56:54.048Z,4.35
2023-03-04T21:00:57.141Z,3.63
2023-03-04T21:05:01.346Z,4.25
2023-03-04T21:09:07.679Z,3.97
2023-03-04T21:13:16.541Z,3.72
2023-03-04T21:17:19.690Z,4.10
2023-03-04T21:21:24.284Z,4.15
2023-03-04T21:25:28.784Z,4.00
2023-03-04T21:29:32.140Z,3.63
2023-03-04T21:33:37.038Z,3.92
2023-03-04T21:37:41.692Z,3.70
2023-03-04T21:41:46.610Z,4.30
2023-03-04T21:45:54.376Z,4.50
2023-03-04T21:49:57.426Z,4.07
2023-03-04T21:54:00.434Z,4.47
2023-03-04T21:58:04.923Z,5.38
2023-03-04T22:02:08.589Z,5.43
2023-03-04T22:06:13.085Z,5.68
2023-03-04T22:10:16.358Z,5.80
2023-03-04T22:14:20.805Z,5.38
2023-03-04T22:18:23.816Z,4.85
2023-03-04T22:22:28.054Z,5.00
2023-03-04T22:26:32.590Z,6.15
2023-03-04T22:30:37.585Z,5.63
2023-03-04T22:34:40.880Z,5.63
2023-03-04T22:38:44.766Z,6.10
2023-03-04T22:42:48.904Z,5.72
2023-03-04T22:46:53.423Z,6.00
2023-03-04T22:50:56.428Z,5.20
2023-03-04T22:55:02.179Z,6.43
2023-03-04T22:59:05.136Z,6.50
2023-03-04T23:03:10.393Z,6.22
2023-03-04T23:07:13.340Z,6.57
2023-03-04T23:11:19.450Z,6.25
2023-03-04T23:15:22.824Z,5.85
2023-03-04T23:19:27.280Z,6.83
2023-03-04T23:23:30.269Z,6.72
2023-03-04T23:27:33.335Z,6.05
2023-03-04T23:31:36.920Z,5.80
2023-03-04T23:35:41.386Z,6.55
2023-03-04T23:39:44.599Z,6.20
2023-03-04T23:43:48.322Z,6.70
2023-03-04T23:47:51.377Z,6.27
2023-03-04T23:51:55.981Z,6.35
2023-03-04T23:55:58.947Z,6.95
